Agua Fria, New Mexico
Current Conditions -  °F | °C
As of 1:53 PM on Tuesday 27 Jan 2015 (Local Time) from KSAF Reporting Station
Clear Clear  
Wind Chill: 57°   Ceiling: Unl
Heat Index: 57°   Visibility: 10mi
Dew Point: 25°   Wind: 14mph
Humidity: 29%   Direction: 290°WNW
Pressure: 30.27"   Gusts: NA
Location:  35.7017°N, 105.921°W
Report Text: KSAF 272053Z 29012KT 10SM CLR 14/M04 A3027 RMK AO2 SLP211 T01391039 56026
Loading
Personal Weather Stations






























Interactive Weather Map New forecast layout! Learn more

10-Day Weather Forecast

Advertisements
Track Severe Weather on mobile